Time;durP1;ratioP1;P1;durP2;ratioP2;P2;SDS_P1;SDS_P2;PMS_P1;PMS_P2;Temp;Humidity;BMP_temperature;BMP_pressure;BME280_temperature;BME280_humidity;BME280_pressure;Samples;Min_cycle;Max_cycle;Signal;HPM_P1;HPM_P2
2024/03/31 00:01:32;;;;;;;;;;;;;;;;;;2211370;67;1984;-19
2024/03/31 00:04:02;;;;;;;;;;;;;;;;;;2209504;67;3439;-20
2024/03/31 00:06:32;;;;;;;;;;;;;;;;;;2210343;67;1699;-20
2024/03/31 00:09:03;;;;;;;;;;;;;;;;;;2208856;67;2213;-20
2024/03/31 00:11:33;;;;;;;;;;;;;;;;;;2211078;67;2713;-20
2024/03/31 00:14:03;;;;;;;;;;;;;;;;;;2210566;59;1793;-19
2024/03/31 00:16:34;;;;;;;;;;;;;;;;;;2210702;67;2274;-19
2024/03/31 00:19:04;;;;;;;;;;;;;;;;;;2209304;59;1825;-19
2024/03/31 00:21:35;;;;;;;;;;;;;;;;;;2209797;67;2001;-19
2024/03/31 00:24:05;;;;;;;;;;;;;;;;;;2208558;59;1853;-19
2024/03/31 00:26:35;;;;;;;;;;;;;;;;;;2209741;67;1834;-19
2024/03/31 00:29:06;;;;;;;;;;;;;;;;;;2209004;67;3046;-19
2024/03/31 00:31:36;;;;;;;;;;;;;;;;;;2210329;67;2007;-19
2024/03/31 00:34:06;;;;;;;;;;;;;;;;;;2208610;59;1976;-19
2024/03/31 00:36:37;;;;;;;;;;;;;;;;;;2209074;67;2004;-19
2024/03/31 00:39:08;;;;;;;;;;;;;;;;;;2208024;59;2551;-21
2024/03/31 00:41:39;;;;;;;;;;;;;;;;;;2209818;59;1941;-19
2024/03/31 00:44:09;;;;;;;;;;;;;;;;;;2208944;59;2337;-19
2024/03/31 00:46:40;;;;;;;;;;;;;;;;;;2209049;67;2012;-19
2024/03/31 00:49:10;;;;;;;;;;;;;;;;;;2208332;67;2142;-19
2024/03/31 00:51:40;;;;;;;;;;;;;;;;;;2211489;66;1769;-19
2024/03/31 00:54:11;;;;;;;;;;;;;;;;;;2209125;67;2292;-19
2024/03/31 00:56:41;;;;;;;;;;;;;;;;;;2209726;67;1948;-19
2024/03/31 00:59:11;;;;;;;;;;;;;;;;;;2208043;59;1865;-19
2024/03/31 01:01:42;;;;;;;;;;;;;;;;;;2208912;59;1981;-19
2024/03/31 01:04:12;;;;;;;;;;;;;;;;;;2208717;59;2622;-19
2024/03/31 01:06:43;;;;;;;;;;;;;;;;;;2207596;67;1846;-19
2024/03/31 01:09:14;;;;;;;;;;;;;;;;;;2207443;67;1883;-19
2024/03/31 01:11:45;;;;;;;;;;;;;;;;;;2209574;59;1827;-19
2024/03/31 01:14:16;;;;;;;;;;;;;;;;;;2208372;59;2035;-19
2024/03/31 01:16:46;;;;;;;;;;;;;;;;;;2208876;67;1824;-19
2024/03/31 01:19:16;;;;;;;;;;;;;;;;;;2208078;59;1937;-19
2024/03/31 01:21:47;;;;;;;;;;;;;;;;;;2209330;67;3358;-19
2024/03/31 01:24:17;;;;;;;;;;;;;;;;;;2208143;59;1850;-19
2024/03/31 01:26:48;;;;;;;;;;;;;;;;;;2208292;67;1886;-19
2024/03/31 01:29:18;;;;;;;;;;;;;;;;;;2207877;67;1958;-19
2024/03/31 01:31:49;;;;;;;;;;;;;;;;;;2208861;67;1803;-19
2024/03/31 01:34:19;;;;;;;;;;;;;;;;;;2206708;59;2889;-19
2024/03/31 01:36:49;;;;;;;;;;;;;;;;;;2207757;67;2283;-19
2024/03/31 01:39:20;;;;;;;;;;;;;;;;;;2208984;59;2493;-19
2024/03/31 01:41:50;;;;;;;;;;;;;;;;;;2206542;67;2035;-19
2024/03/31 01:44:21;;;;;;;;;;;;;;;;;;2208517;59;2005;-18
2024/03/31 01:46:51;;;;;;;;;;;;;;;;;;2208286;67;2261;-18
2024/03/31 01:49:21;;;;;;;;;;;;;;;;;;2206587;67;1931;-18
2024/03/31 01:51:52;;;;;;;;;;;;;;;;;;2208709;67;1809;-18
2024/03/31 01:54:22;;;;;;;;;;;;;;;;;;2210275;66;1807;-18
2024/03/31 01:56:52;;;;;;;;;;;;;;;;;;2208709;67;1878;-18
2024/03/31 01:59:23;;;;;;;;;;;;;;;;;;2208236;67;2957;-18
2024/03/31 02:01:53;;;;;;;;;;;;;;;;;;2208711;67;1790;-18
2024/03/31 02:04:24;;;;;;;;;;;;;;;;;;2207788;67;1995;-18
2024/03/31 02:06:54;;;;;;;;;;;;;;;;;;2207992;67;2405;-18
2024/03/31 02:09:25;;;;;;;;;;;;;;;;;;2207684;67;1884;-18
2024/03/31 02:11:55;;;;;;;;;;;;;;;;;;2209718;67;2464;-18
2024/03/31 02:14:26;;;;;;;;;;;;;;;;;;2207229;59;2783;-18
2024/03/31 02:16:56;;;;;;;;;;;;;;;;;;2208873;67;2480;-18
2024/03/31 02:19:26;;;;;;;;;;;;;;;;;;2206594;59;1945;-18
2024/03/31 02:21:57;;;;;;;;;;;;;;;;;;2208055;67;1797;-18
2024/03/31 02:24:30;;;;;;;;;;;;;;;;;;2208125;59;2048;-18
2024/03/31 02:27:00;;;;;;;;;;;;;;;;;;2210365;66;3226;-18
2024/03/31 02:29:31;;;;;;;;;;;;;;;;;;2208479;67;1908;-18
2024/03/31 02:32:01;;;;;;;;;;;;;;;;;;2209561;59;2424;-18
2024/03/31 02:34:32;;;;;;;;;;;;;;;;;;2206979;67;1872;-18
2024/03/31 02:37:02;;;;;;;;;;;;;;;;;;2209122;59;1789;-18
2024/03/31 02:39:32;;;;;;;;;;;;;;;;;;2205513;59;2042;-18
2024/03/31 02:42:03;;;;;;;;;;;;;;;;;;2209781;67;1927;-18
2024/03/31 02:44:33;;;;;;;;;;;;;;;;;;2207718;59;2770;-18
2024/03/31 02:47:03;;;;;;;;;;;;;;;;;;2209169;67;2625;-18
2024/03/31 02:49:34;;;;;;;;;;;;;;;;;;2210214;66;2389;-18
2024/03/31 02:52:07;;;;;;;;;;;;;;;;;;2209213;67;2654;-18
2024/03/31 02:54:38;;;;;;;;;;;;;;;;;;2210304;67;2454;-18
2024/03/31 02:57:09;;;;;;;;;;;;;;;;;;2207709;66;1876;-18
2024/03/31 02:59:44;;;;;;;;;;;;;;;;;;2210021;59;2422;-18
2024/03/31 03:02:14;;;;;;;;;;;;;;;;;;2208624;59;2098;-18
2024/03/31 03:04:45;;;;;;;;;;;;;;;;;;2212526;66;1978;-18
2024/03/31 03:07:15;;;;;;;;;;;;;;;;;;2208491;67;1767;-18
2024/03/31 03:09:46;;;;;;;;;;;;;;;;;;2210352;67;1916;-18
2024/03/31 03:12:16;;;;;;;;;;;;;;;;;;2208584;67;1918;-18
2024/03/31 03:14:46;;;;;;;;;;;;;;;;;;2210455;59;1842;-18
2024/03/31 03:17:17;;;;;;;;;;;;;;;;;;2207924;67;1998;-18
2024/03/31 03:19:51;;;;;;;;;;;;;;;;;;2210376;59;2043;-18
2024/03/31 03:22:21;;;;;;;;;;;;;;;;;;2207920;67;2784;-18
2024/03/31 03:24:54;;;;;;;;;;;;;;;;;;2209812;59;1995;-18
2024/03/31 03:27:25;;;;;;;;;;;;;;;;;;2208380;67;1873;-18
2024/03/31 03:29:55;;;;;;;;;;;;;;;;;;2208815;67;1965;-18
2024/03/31 03:32:26;;;;;;;;;;;;;;;;;;2208146;59;1811;-18
2024/03/31 03:34:56;;;;;;;;;;;;;;;;;;2210320;59;1863;-18
2024/03/31 03:37:26;;;;;;;;;;;;;;;;;;2208215;59;1755;-18
2024/03/31 03:39:57;;;;;;;;;;;;;;;;;;2210426;59;2024;-18
2024/03/31 03:42:27;;;;;;;;;;;;;;;;;;2209966;59;1830;-18
2024/03/31 03:44:57;;;;;;;;;;;;;;;;;;2209973;59;1869;-18
2024/03/31 03:47:28;;;;;;;;;;;;;;;;;;2210473;66;2722;-18
2024/03/31 03:49:58;;;;;;;;;;;;;;;;;;2209402;66;1915;-18
2024/03/31 03:52:28;;;;;;;;;;;;;;;;;;2208577;67;2040;-18
2024/03/31 03:54:59;;;;;;;;;;;;;;;;;;2209841;67;2052;-18
2024/03/31 03:57:30;;;;;;;;;;;;;;;;;;2210946;59;2178;-18
2024/03/31 04:00:00;;;;;;;;;;;;;;;;;;2209260;59;1949;-18
2024/03/31 04:02:30;;;;;;;;;;;;;;;;;;2206742;67;1879;-18
2024/03/31 04:05:00;;;;;;;;;;;;;;;;;;2206532;67;1946;-18
2024/03/31 04:07:31;;;;;;;;;;;;;;;;;;2206612;67;2523;-18
2024/03/31 04:10:01;;;;;;;;;;;;;;;;;;2209380;67;1788;-18
2024/03/31 04:12:32;;;;;;;;;;;;;;;;;;2207876;67;1857;-18
2024/03/31 04:15:02;;;;;;;;;;;;;;;;;;2208471;59;1990;-18
2024/03/31 04:17:34;;;;;;;;;;;;;;;;;;2206933;67;2521;-18
2024/03/31 04:20:05;;;;;;;;;;;;;;;;;;2209623;59;1920;-18
2024/03/31 04:22:36;;;;;;;;;;;;;;;;;;2207420;59;2313;-18
2024/03/31 04:25:06;;;;;;;;;;;;;;;;;;2209643;67;2077;-18
2024/03/31 04:27:37;;;;;;;;;;;;;;;;;;2208853;67;2035;-18
2024/03/31 04:30:07;;;;;;;;;;;;;;;;;;2210185;67;2531;-18
2024/03/31 04:32:37;;;;;;;;;;;;;;;;;;2210483;59;2685;-18
2024/03/31 04:35:08;;;;;;;;;;;;;;;;;;2213207;58;2770;-18
2024/03/31 04:37:38;;;;;;;;;;;;;;;;;;2208355;59;2431;-18
2024/03/31 04:40:09;;;;;;;;;;;;;;;;;;2210921;59;1986;-18
2024/03/31 04:42:39;;;;;;;;;;;;;;;;;;2208717;59;1961;-18
2024/03/31 04:45:09;;;;;;;;;;;;;;;;;;2209752;59;2887;-18
2024/03/31 04:47:40;;;;;;;;;;;;;;;;;;2207753;67;2117;-18
2024/03/31 04:50:10;;;;;;;;;;;;;;;;;;2209204;67;1863;-18
2024/03/31 04:52:41;;;;;;;;;;;;;;;;;;2206960;67;3319;-18
2024/03/31 04:55:11;;;;;;;;;;;;;;;;;;2211010;59;1887;-18
2024/03/31 04:57:42;;;;;;;;;;;;;;;;;;2206570;67;1761;-18
2024/03/31 05:00:12;;;;;;;;;;;;;;;;;;2208462;59;1996;-18
2024/03/31 05:02:45;;;;;;;;;;;;;;;;;;2207491;67;2032;-18
2024/03/31 05:05:15;;;;;;;;;;;;;;;;;;2208033;67;1926;-18
2024/03/31 05:07:46;;;;;;;;;;;;;;;;;;2209448;59;2688;-18
2024/03/31 05:10:16;;;;;;;;;;;;;;;;;;2209290;67;1824;-18
2024/03/31 05:12:46;;;;;;;;;;;;;;;;;;2208029;59;2690;-18
2024/03/31 05:15:17;;;;;;;;;;;;;;;;;;2211441;58;2841;-18
2024/03/31 05:17:47;;;;;;;;;;;;;;;;;;2208665;67;2561;-18
2024/03/31 05:20:17;;;;;;;;;;;;;;;;;;2209195;67;2505;-18
2024/03/31 05:22:48;;;;;;;;;;;;;;;;;;2208869;59;1905;-18
2024/03/31 05:25:18;;;;;;;;;;;;;;;;;;2210021;67;2646;-17
2024/03/31 05:27:49;;;;;;;;;;;;;;;;;;2210229;66;1921;-18
2024/03/31 05:30:21;;;;;;;;;;;;;;;;;;2207018;66;8544;-18
2024/03/31 05:32:52;;;;;;;;;;;;;;;;;;2209884;59;1799;-18
2024/03/31 05:35:22;;;;;;;;;;;;;;;;;;2208323;59;1868;-17
2024/03/31 05:37:52;;;;;;;;;;;;;;;;;;2209479;59;2031;-18
2024/03/31 05:40:22;;;;;;;;;;;;;;;;;;2208185;59;2202;-18
2024/03/31 05:42:53;;;;;;;;;;;;;;;;;;2210022;59;1960;-18
2024/03/31 05:45:23;;;;;;;;;;;;;;;;;;2207187;67;1870;-17
2024/03/31 05:47:54;;;;;;;;;;;;;;;;;;2208896;67;2275;-18
2024/03/31 05:50:24;;;;;;;;;;;;;;;;;;2208186;67;2020;-18
2024/03/31 05:52:55;;;;;;;;;;;;;;;;;;2208844;67;1778;-18
2024/03/31 05:55:25;;;;;;;;;;;;;;;;;;2208155;67;1858;-17
2024/03/31 05:57:55;;;;;;;;;;;;;;;;;;2209319;67;2308;-17
2024/03/31 06:00:26;;;;;;;;;;;;;;;;;;2207558;67;2544;-17
2024/03/31 06:02:56;;;;;;;;;;;;;;;;;;2206634;67;2581;-17
2024/03/31 06:05:27;;;;;;;;;;;;;;;;;;2207533;67;1803;-17
2024/03/31 06:07:57;;;;;;;;;;;;;;;;;;2209835;67;1869;-17
2024/03/31 06:10:27;;;;;;;;;;;;;;;;;;2208894;67;1858;-17
2024/03/31 06:12:58;;;;;;;;;;;;;;;;;;2207667;59;2754;-17
2024/03/31 06:15:28;;;;;;;;;;;;;;;;;;2207328;59;2737;-17
2024/03/31 06:17:58;;;;;;;;;;;;;;;;;;2209248;59;2706;-18
2024/03/31 06:20:29;;;;;;;;;;;;;;;;;;2206893;59;3076;-17
2024/03/31 06:22:59;;;;;;;;;;;;;;;;;;2212169;59;2679;-18
2024/03/31 06:25:29;;;;;;;;;;;;;;;;;;2207277;59;2503;-17
2024/03/31 06:27:59;;;;;;;;;;;;;;;;;;2208671;59;2892;-17
2024/03/31 06:30:30;;;;;;;;;;;;;;;;;;2207745;67;2894;-17
2024/03/31 06:33:00;;;;;;;;;;;;;;;;;;2210012;59;1792;-17
2024/03/31 06:35:30;;;;;;;;;;;;;;;;;;2207580;59;2698;-17
2024/03/31 06:38:01;;;;;;;;;;;;;;;;;;2211125;59;1946;-17
2024/03/31 06:40:33;;;;;;;;;;;;;;;;;;2209392;59;2589;-17
2024/03/31 06:43:04;;;;;;;;;;;;;;;;;;2209218;59;2416;-18
2024/03/31 06:45:34;;;;;;;;;;;;;;;;;;2210221;66;1811;-17
2024/03/31 06:48:04;;;;;;;;;;;;;;;;;;2209410;67;1798;-17
2024/03/31 06:50:35;;;;;;;;;;;;;;;;;;2207534;67;1898;-17
2024/03/31 06:53:05;;;;;;;;;;;;;;;;;;2208160;67;1995;-18
2024/03/31 06:55:35;;;;;;;;;;;;;;;;;;2208963;67;1767;-17
2024/03/31 06:58:06;;;;;;;;;;;;;;;;;;2209112;59;3197;-18
2024/03/31 07:00:37;;;;;;;;;;;;;;;;;;2208011;67;1934;-17
2024/03/31 07:03:07;;;;;;;;;;;;;;;;;;2210899;59;1765;-18
2024/03/31 07:05:37;;;;;;;;;;;;;;;;;;2208919;67;1816;-17
2024/03/31 07:08:08;;;;;;;;;;;;;;;;;;2209878;67;1992;-17
2024/03/31 07:10:38;;;;;;;;;;;;;;;;;;2209123;67;2543;-18
2024/03/31 07:13:08;;;;;;;;;;;;;;;;;;2210701;67;3256;-18
2024/03/31 07:15:38;;;;;;;;;;;;;;;;;;2210949;58;2014;-18
2024/03/31 07:18:09;;;;;;;;;;;;;;;;;;2211241;59;2060;-17
2024/03/31 07:20:40;;;;;;;;;;;;;;;;;;2212208;58;2323;-17
2024/03/31 07:23:10;;;;;;;;;;;;;;;;;;2211384;59;1885;-17
2024/03/31 07:25:41;;;;;;;;;;;;;;;;;;2209894;67;2234;-17
2024/03/31 07:28:11;;;;;;;;;;;;;;;;;;2212518;58;1871;-18
2024/03/31 07:30:42;;;;;;;;;;;;;;;;;;2208549;67;2272;-18
2024/03/31 07:33:12;;;;;;;;;;;;;;;;;;2212528;58;2083;-18
2024/03/31 07:35:43;;;;;;;;;;;;;;;;;;2208808;59;2516;-17
2024/03/31 07:38:13;;;;;;;;;;;;;;;;;;2209836;59;1892;-18
2024/03/31 07:40:43;;;;;;;;;;;;;;;;;;2209525;59;2216;-17
2024/03/31 07:43:19;;;;;;;;;;;;;;;;;;2210431;59;2515;-17
2024/03/31 07:45:50;;;;;;;;;;;;;;;;;;2209271;59;2351;-17
2024/03/31 07:48:20;;;;;;;;;;;;;;;;;;2210458;59;1885;-17
2024/03/31 07:50:50;;;;;;;;;;;;;;;;;;2208226;67;2277;-18
2024/03/31 07:53:21;;;;;;;;;;;;;;;;;;2210229;59;1904;-17
2024/03/31 07:55:57;;;;;;;;;;;;;;;;;;2208022;67;2435;-17
2024/03/31 07:58:31;;;;;;;;;;;;;;;;;;2209215;66;1774;-17
2024/03/31 08:01:01;;;;;;;;;;;;;;;;;;2208344;59;1923;-18
2024/03/31 08:03:31;;;;;;;;;;;;;;;;;;2208082;67;1943;-17
2024/03/31 08:06:02;;;;;;;;;;;;;;;;;;2208749;67;2394;-17
2024/03/31 08:08:32;;;;;;;;;;;;;;;;;;2208479;59;2244;-17
2024/03/31 08:11:03;;;;;;;;;;;;;;;;;;2208646;59;2670;-17
2024/03/31 08:13:33;;;;;;;;;;;;;;;;;;2207251;59;2229;-17
2024/03/31 08:16:04;;;;;;;;;;;;;;;;;;2208585;67;2356;-17
2024/03/31 08:18:35;;;;;;;;;;;;;;;;;;2208852;67;1853;-17
2024/03/31 08:21:05;;;;;;;;;;;;;;;;;;2211004;59;1949;-18
2024/03/31 08:23:36;;;;;;;;;;;;;;;;;;2208009;59;2493;-18
2024/03/31 08:26:06;;;;;;;;;;;;;;;;;;2209308;59;2147;-18
2024/03/31 08:28:37;;;;;;;;;;;;;;;;;;2208392;67;1832;-18
2024/03/31 08:31:07;;;;;;;;;;;;;;;;;;2209944;67;1781;-18
2024/03/31 08:33:37;;;;;;;;;;;;;;;;;;2210657;58;2729;-17
2024/03/31 08:36:11;;;;;;;;;;;;;;;;;;2208913;67;2447;-18
2024/03/31 08:38:41;;;;;;;;;;;;;;;;;;2208362;59;1902;-18
2024/03/31 08:41:23;;;;;;;;;;;;;;;;;;2209719;59;2033;-18
2024/03/31 08:43:57;;;;;;;;;;;;;;;;;;2207710;59;2646;-18
2024/03/31 08:46:27;;;;;;;;;;;;;;;;;;2210431;59;1935;-18
2024/03/31 08:48:58;;;;;;;;;;;;;;;;;;2209390;66;1856;-18
2024/03/31 08:51:28;;;;;;;;;;;;;;;;;;2209910;67;2708;-18
2024/03/31 08:53:59;;;;;;;;;;;;;;;;;;2208681;59;2247;-18
2024/03/31 08:56:29;;;;;;;;;;;;;;;;;;2209768;67;1737;-18
2024/03/31 08:59:01;;;;;;;;;;;;;;;;;;2207944;59;1809;-18
2024/03/31 09:01:33;;;;;;;;;;;;;;;;;;2208564;67;2738;-18
2024/03/31 09:04:04;;;;;;;;;;;;;;;;;;2208100;67;2895;-18
2024/03/31 09:06:34;;;;;;;;;;;;;;;;;;2211182;66;2802;-18
2024/03/31 09:09:07;;;;;;;;;;;;;;;;;;2209880;66;1943;-18
2024/03/31 09:11:38;;;;;;;;;;;;;;;;;;2210014;67;2534;-18
2024/03/31 09:14:08;;;;;;;;;;;;;;;;;;2210945;58;2398;-18
2024/03/31 09:16:43;;;;;;;;;;;;;;;;;;2206823;67;2001;-18
2024/03/31 09:19:14;;;;;;;;;;;;;;;;;;2210674;66;1773;-18
2024/03/31 09:21:47;;;;;;;;;;;;;;;;;;2209418;66;2452;-18
2024/03/31 09:24:17;;;;;;;;;;;;;;;;;;2207957;67;1824;-18
2024/03/31 09:26:49;;;;;;;;;;;;;;;;;;2207100;67;2437;-18
2024/03/31 09:29:19;;;;;;;;;;;;;;;;;;2207861;66;1825;-18
2024/03/31 09:31:50;;;;;;;;;;;;;;;;;;2206711;67;2542;-18
2024/03/31 09:34:21;;;;;;;;;;;;;;;;;;2207886;59;2693;-18
2024/03/31 09:36:51;;;;;;;;;;;;;;;;;;2207682;59;1792;-18
2024/03/31 09:39:22;;;;;;;;;;;;;;;;;;2208906;59;2336;-18
2024/03/31 09:41:54;;;;;;;;;;;;;;;;;;2207238;59;2466;-18
2024/03/31 09:44:24;;;;;;;;;;;;;;;;;;2209318;59;2492;-18
2024/03/31 09:46:55;;;;;;;;;;;;;;;;;;2207293;59;1949;-18
2024/03/31 09:49:33;;;;;;;;;;;;;;;;;;2209103;67;1876;-18
2024/03/31 09:52:04;;;;;;;;;;;;;;;;;;2210706;66;1982;-18
2024/03/31 09:54:51;;;;;;;;;;;;;;;;;;2207747;67;2422;-18
2024/03/31 09:57:26;;;;;;;;;;;;;;;;;;2208018;59;2859;-18
2024/03/31 09:59:58;;;;;;;;;;;;;;;;;;2206386;59;2650;-18
2024/03/31 10:02:29;;;;;;;;;;;;;;;;;;2208626;67;2524;-18
2024/03/31 10:05:04;;;;;;;;;;;;;;;;;;2206592;59;1863;-17
2024/03/31 10:07:35;;;;;;;;;;;;;;;;;;2207926;59;2467;-17
2024/03/31 10:10:06;;;;;;;;;;;;;;;;;;2207533;67;2237;-17
2024/03/31 10:12:37;;;;;;;;;;;;;;;;;;2208193;67;1926;-18
2024/03/31 10:15:07;;;;;;;;;;;;;;;;;;2208024;59;2023;-17
2024/03/31 10:17:39;;;;;;;;;;;;;;;;;;2208406;67;1840;-17
2024/03/31 10:20:10;;;;;;;;;;;;;;;;;;2209870;59;2630;-18
2024/03/31 10:22:42;;;;;;;;;;;;;;;;;;2206859;59;3387;-17
2024/03/31 10:25:13;;;;;;;;;;;;;;;;;;2208231;59;2461;-18
2024/03/31 10:27:43;;;;;;;;;;;;;;;;;;2209183;59;3823;-18
2024/03/31 10:30:15;;;;;;;;;;;;;;;;;;2207630;59;2382;-18
2024/03/31 10:32:46;;;;;;;;;;;;;;;;;;2205315;59;2449;-18
2024/03/31 10:35:16;;;;;;;;;;;;;;;;;;2208892;59;1850;-18
2024/03/31 10:37:48;;;;;;;;;;;;;;;;;;2208210;59;2677;-18
2024/03/31 10:40:21;;;;;;;;;;;;;;;;;;2207942;59;2614;-18
2024/03/31 10:42:55;;;;;;;;;;;;;;;;;;2207631;59;2486;-18
2024/03/31 10:45:25;;;;;;;;;;;;;;;;;;2209412;59;3774;-20
2024/03/31 10:47:56;;;;;;;;;;;;;;;;;;2207573;59;2540;-20
2024/03/31 10:50:26;;;;;;;;;;;;;;;;;;2207581;59;2691;-20
2024/03/31 10:52:57;;;;;;;;;;;;;;;;;;2206585;59;2759;-20
2024/03/31 10:55:28;;;;;;;;;;;;;;;;;;2208184;59;2770;-20
2024/03/31 10:57:58;;;;;;;;;;;;;;;;;;2208253;59;2862;-21
2024/03/31 11:00:35;;;;;;;;;;;;;;;;;;2208552;59;2640;-20
2024/03/31 11:03:06;;;;;;;;;;;;;;;;;;2208072;53;2851;-23
2024/03/31 11:05:39;;;;;;;;;;;;;;;;;;2204560;59;3102;-23
2024/03/31 11:08:09;;;;;;;;;;;;;;;;;;2203840;59;2775;-23
2024/03/31 11:10:40;;;;;;;;;;;;;;;;;;2205743;59;2465;-24
2024/03/31 11:13:10;;;;;;;;;;;;;;;;;;2204967;59;2366;-23
2024/03/31 11:15:41;;;;;;;;;;;;;;;;;;2205318;59;2208;-24
2024/03/31 11:18:11;;;;;;;;;;;;;;;;;;2204152;67;1907;-23
2024/03/31 11:20:42;;;;;;;;;;;;;;;;;;2206516;59;1937;-23
2024/03/31 11:23:14;;;;;;;;;;;;;;;;;;2207091;67;2191;-24
2024/03/31 11:25:45;;;;;;;;;;;;;;;;;;2206001;59;1507;-23
2024/03/31 11:28:15;;;;;;;;;;;;;;;;;;2204003;67;1254;-23
2024/03/31 11:30:45;;;;;;;;;;;;;;;;;;2207393;67;1378;-24
2024/03/31 11:33:16;;;;;;;;;;;;;;;;;;2203629;59;1747;-24
2024/03/31 11:35:46;;;;;;;;;;;;;;;;;;2206099;67;1806;-24
2024/03/31 11:38:16;;;;;;;;;;;;;;;;;;2206998;59;1446;-24
2024/03/31 11:40:47;;;;;;;;;;;;;;;;;;2209071;58;1939;-24
2024/03/31 11:43:18;;;;;;;;;;;;;;;;;;2206714;67;1446;-24
2024/03/31 11:45:48;;;;;;;;;;;;;;;;;;2206601;59;1392;-24
2024/03/31 11:48:21;;;;;;;;;;;;;;;;;;2206241;59;2236;-24
2024/03/31 11:50:52;;;;;;;;;;;;;;;;;;2204915;59;2597;-24
2024/03/31 11:53:22;;;;;;;;;;;;;;;;;;2206031;59;2450;-23
2024/03/31 11:55:52;;;;;;;;;;;;;;;;;;2205670;59;1747;-23
2024/03/31 11:58:23;;;;;;;;;;;;;;;;;;2206446;59;1351;-23
2024/03/31 12:00:53;;;;;;;;;;;;;;;;;;2204439;59;2375;-23
2024/03/31 12:03:23;;;;;;;;;;;;;;;;;;2205962;59;2948;-23
2024/03/31 12:05:54;;;;;;;;;;;;;;;;;;2204241;59;2382;-24
2024/03/31 12:08:24;;;;;;;;;;;;;;;;;;2208270;59;2659;-23
2024/03/31 12:10:57;;;;;;;;;;;;;;;;;;2205127;59;2200;-24
2024/03/31 12:13:27;;;;;;;;;;;;;;;;;;2206229;59;2594;-24
2024/03/31 12:15:57;;;;;;;;;;;;;;;;;;2204913;58;2581;-24
2024/03/31 12:18:28;;;;;;;;;;;;;;;;;;2205577;59;2345;-24
2024/03/31 12:20:58;;;;;;;;;;;;;;;;;;2203483;59;2443;-24
2024/03/31 12:23:29;;;;;;;;;;;;;;;;;;2205746;59;2428;-23
2024/03/31 12:26:00;;;;;;;;;;;;;;;;;;2203194;59;2797;-23
2024/03/31 12:28:30;;;;;;;;;;;;;;;;;;2204748;59;2448;-23
2024/03/31 12:31:00;;;;;;;;;;;;;;;;;;2204241;63;2311;-23
2024/03/31 12:33:30;;;;;;;;;;;;;;;;;;2206378;59;1829;-23
2024/03/31 12:36:01;;;;;;;;;;;;;;;;;;2205031;67;1273;-23
2024/03/31 12:38:31;;;;;;;;;;;;;;;;;;2206476;59;1358;-23
2024/03/31 12:41:02;;;;;;;;;;;;;;;;;;2204202;59;2327;-23
2024/03/31 12:43:32;;;;;;;;;;;;;;;;;;2205633;59;2439;-24
2024/03/31 12:46:09;;;;;;;;;;;;;;;;;;2202897;59;2779;-23
2024/03/31 12:48:44;;;;;;;;;;;;;;;;;;2205111;59;2649;-24
2024/03/31 12:51:21;;;;;;;;;;;;;;;;;;2203477;59;2903;-23
2024/03/31 12:53:51;;;;;;;;;;;;;;;;;;2207896;59;2430;-23
2024/03/31 12:56:22;;;;;;;;;;;;;;;;;;2205267;59;2201;-23
2024/03/31 12:58:53;;;;;;;;;;;;;;;;;;2204878;59;2254;-23
2024/03/31 13:01:23;;;;;;;;;;;;;;;;;;2203865;66;2305;-23
2024/03/31 13:03:53;;;;;;;;;;;;;;;;;;2205598;59;3081;-23
2024/03/31 13:06:23;;;;;;;;;;;;;;;;;;2203559;59;3734;-23
2024/03/31 13:08:54;;;;;;;;;;;;;;;;;;2204189;59;2227;-23
2024/03/31 13:11:25;;;;;;;;;;;;;;;;;;2205211;59;2329;-23
2024/03/31 13:14:01;;;;;;;;;;;;;;;;;;2205497;59;1412;-23
2024/03/31 13:16:31;;;;;;;;;;;;;;;;;;2205308;59;2323;-23
2024/03/31 13:19:01;;;;;;;;;;;;;;;;;;2202771;59;2378;-23
2024/03/31 13:21:32;;;;;;;;;;;;;;;;;;2205220;59;3528;-23
2024/03/31 13:24:02;;;;;;;;;;;;;;;;;;2205256;59;2223;-23
2024/03/31 13:26:32;;;;;;;;;;;;;;;;;;2205850;67;1295;-23
2024/03/31 13:29:04;;;;;;;;;;;;;;;;;;2204403;67;2277;-23
2024/03/31 13:31:34;;;;;;;;;;;;;;;;;;2205551;59;2629;-23
2024/03/31 13:34:05;;;;;;;;;;;;;;;;;;2204202;59;2344;-23
2024/03/31 13:36:35;;;;;;;;;;;;;;;;;;2205666;59;2711;-23
2024/03/31 13:39:05;;;;;;;;;;;;;;;;;;2204400;59;2026;-23
2024/03/31 13:41:35;;;;;;;;;;;;;;;;;;2208377;58;1947;-23
2024/03/31 13:44:06;;;;;;;;;;;;;;;;;;2204373;64;2311;-23
2024/03/31 13:46:36;;;;;;;;;;;;;;;;;;2207066;59;1605;-23
2024/03/31 13:49:06;;;;;;;;;;;;;;;;;;2209261;58;2097;-23
2024/03/31 13:51:37;;;;;;;;;;;;;;;;;;2208204;66;1417;-23
2024/03/31 13:54:07;;;;;;;;;;;;;;;;;;2206836;59;1203;-23
2024/03/31 13:56:37;;;;;;;;;;;;;;;;;;2204614;59;2659;-23
2024/03/31 13:59:10;;;;;;;;;;;;;;;;;;2204139;59;2708;-23
2024/03/31 14:01:40;;;;;;;;;;;;;;;;;;2205196;59;2731;-23
2024/03/31 14:04:10;;;;;;;;;;;;;;;;;;2204942;59;1370;-23
2024/03/31 14:06:41;;;;;;;;;;;;;;;;;;2205541;67;1225;-23
2024/03/31 14:09:11;;;;;;;;;;;;;;;;;;2206969;59;2273;-23
2024/03/31 14:11:42;;;;;;;;;;;;;;;;;;2206366;59;1470;-23
2024/03/31 14:14:12;;;;;;;;;;;;;;;;;;2205141;59;1646;-23
2024/03/31 14:16:42;;;;;;;;;;;;;;;;;;2205108;66;1523;-23
2024/03/31 14:19:13;;;;;;;;;;;;;;;;;;2204431;59;2470;-23
2024/03/31 14:21:43;;;;;;;;;;;;;;;;;;2204267;59;1942;-23
2024/03/31 14:24:13;;;;;;;;;;;;;;;;;;2204060;59;1941;-23
2024/03/31 14:26:43;;;;;;;;;;;;;;;;;;2205173;67;1217;-23
2024/03/31 14:29:14;;;;;;;;;;;;;;;;;;2205412;67;2407;-23
2024/03/31 14:31:44;;;;;;;;;;;;;;;;;;2206392;67;1658;-23
2024/03/31 14:34:14;;;;;;;;;;;;;;;;;;2205320;67;1594;-23
2024/03/31 14:36:45;;;;;;;;;;;;;;;;;;2206022;59;2338;-23
2024/03/31 14:39:15;;;;;;;;;;;;;;;;;;2205555;59;2009;-23
2024/03/31 14:41:45;;;;;;;;;;;;;;;;;;2205881;59;1944;-23
2024/03/31 14:44:15;;;;;;;;;;;;;;;;;;2206397;67;1464;-22
2024/03/31 14:46:46;;;;;;;;;;;;;;;;;;2206155;59;2175;-22
2024/03/31 14:49:16;;;;;;;;;;;;;;;;;;2208463;66;1586;-23
2024/03/31 14:51:46;;;;;;;;;;;;;;;;;;2205848;67;1448;-23
2024/03/31 14:54:19;;;;;;;;;;;;;;;;;;2205814;67;1595;-23
2024/03/31 14:56:49;;;;;;;;;;;;;;;;;;2207040;67;1419;-22
2024/03/31 14:59:22;;;;;;;;;;;;;;;;;;2205920;59;3015;-22
2024/03/31 15:01:52;;;;;;;;;;;;;;;;;;2205918;59;2500;-23
2024/03/31 15:04:23;;;;;;;;;;;;;;;;;;2206089;59;2210;-22
2024/03/31 15:06:53;;;;;;;;;;;;;;;;;;2204243;59;2530;-22
2024/03/31 15:09:23;;;;;;;;;;;;;;;;;;2205236;59;2710;-22
2024/03/31 15:11:53;;;;;;;;;;;;;;;;;;2205734;59;2534;-23
2024/03/31 15:14:23;;;;;;;;;;;;;;;;;;2205773;59;2418;-23
2024/03/31 15:16:54;;;;;;;;;;;;;;;;;;2206864;67;2313;-22
2024/03/31 15:19:24;;;;;;;;;;;;;;;;;;2208860;59;1552;-22
2024/03/31 15:21:54;;;;;;;;;;;;;;;;;;2206474;67;1954;-22
2024/03/31 15:24:24;;;;;;;;;;;;;;;;;;2206983;59;1930;-22
2024/03/31 15:26:55;;;;;;;;;;;;;;;;;;2206657;67;1712;-22
2024/03/31 15:29:25;;;;;;;;;;;;;;;;;;2206471;67;1610;-22
2024/03/31 15:31:55;;;;;;;;;;;;;;;;;;2204658;59;2416;-22
2024/03/31 15:34:25;;;;;;;;;;;;;;;;;;2204641;59;2518;-22
2024/03/31 15:36:56;;;;;;;;;;;;;;;;;;2205917;59;2264;-22
2024/03/31 15:39:26;;;;;;;;;;;;;;;;;;2206715;59;1765;-22
2024/03/31 15:41:56;;;;;;;;;;;;;;;;;;2205987;59;2200;-22
2024/03/31 15:44:27;;;;;;;;;;;;;;;;;;2205798;59;1690;-22
2024/03/31 15:47:00;;;;;;;;;;;;;;;;;;2206066;67;1723;-22
2024/03/31 15:49:31;;;;;;;;;;;;;;;;;;2206233;67;1483;-22
2024/03/31 15:52:01;;;;;;;;;;;;;;;;;;2203580;59;2423;-22
2024/03/31 15:54:32;;;;;;;;;;;;;;;;;;2204509;59;2394;-22
2024/03/31 15:57:03;;;;;;;;;;;;;;;;;;2205984;60;1254;-22
2024/03/31 15:59:33;;;;;;;;;;;;;;;;;;2206222;67;1333;-22
2024/03/31 16:02:07;;;;;;;;;;;;;;;;;;2204515;59;2387;-22
2024/03/31 16:04:37;;;;;;;;;;;;;;;;;;2205953;59;2529;-22
2024/03/31 16:07:07;;;;;;;;;;;;;;;;;;2204586;59;2582;-22
2024/03/31 16:09:37;;;;;;;;;;;;;;;;;;2204953;59;2515;-22
2024/03/31 16:12:11;;;;;;;;;;;;;;;;;;2205355;59;2725;-22
2024/03/31 16:14:41;;;;;;;;;;;;;;;;;;2205984;59;2175;-22
2024/03/31 16:17:11;;;;;;;;;;;;;;;;;;2205394;59;2382;-22
2024/03/31 16:19:41;;;;;;;;;;;;;;;;;;2205235;59;2656;-23
2024/03/31 16:22:12;;;;;;;;;;;;;;;;;;2205131;59;2779;-23
2024/03/31 16:24:42;;;;;;;;;;;;;;;;;;2209364;58;1607;-23
2024/03/31 16:27:12;;;;;;;;;;;;;;;;;;2205786;67;2264;-23
2024/03/31 16:29:42;;;;;;;;;;;;;;;;;;2206030;67;1352;-23
2024/03/31 16:32:12;;;;;;;;;;;;;;;;;;2205715;59;2261;-23
2024/03/31 16:34:43;;;;;;;;;;;;;;;;;;2206853;59;1765;-22
2024/03/31 16:37:14;;;;;;;;;;;;;;;;;;2204921;59;1878;-23
2024/03/31 16:39:44;;;;;;;;;;;;;;;;;;2207064;59;1733;-23
2024/03/31 16:42:14;;;;;;;;;;;;;;;;;;2205931;59;2233;-23
2024/03/31 16:44:45;;;;;;;;;;;;;;;;;;2206579;59;1297;-23
2024/03/31 16:47:15;;;;;;;;;;;;;;;;;;2206153;67;1288;-23
2024/03/31 16:49:45;;;;;;;;;;;;;;;;;;2206616;67;1597;-23
2024/03/31 16:52:16;;;;;;;;;;;;;;;;;;2206466;67;1371;-23
2024/03/31 16:54:46;;;;;;;;;;;;;;;;;;2207660;67;1499;-23
2024/03/31 16:57:16;;;;;;;;;;;;;;;;;;2205555;67;1234;-23
2024/03/31 16:59:46;;;;;;;;;;;;;;;;;;2206843;59;1414;-23
2024/03/31 17:02:20;;;;;;;;;;;;;;;;;;2203792;59;2716;-23
2024/03/31 17:04:50;;;;;;;;;;;;;;;;;;2206566;59;2666;-28
2024/03/31 17:07:21;;;;;;;;;;;;;;;;;;2204840;59;2466;-23
2024/03/31 17:09:51;;;;;;;;;;;;;;;;;;2205942;59;2320;-23
2024/03/31 17:12:21;;;;;;;;;;;;;;;;;;2203478;59;1719;-23
2024/03/31 17:14:51;;;;;;;;;;;;;;;;;;2207697;59;1540;-23
2024/03/31 17:17:21;;;;;;;;;;;;;;;;;;2206181;59;1471;-23
2024/03/31 17:19:52;;;;;;;;;;;;;;;;;;2207172;67;1685;-23
2024/03/31 17:22:22;;;;;;;;;;;;;;;;;;2206124;67;1941;-23
2024/03/31 17:24:55;;;;;;;;;;;;;;;;;;2209657;59;1576;-23
2024/03/31 17:27:26;;;;;;;;;;;;;;;;;;2207441;67;2292;-23